sensor_id;sensor_type;location;lat;lon;timestamp;pressure;altitude;pressure_sealevel;temperature;humidity
25130;BME280;13308;50.860;13.664;2023-05-31T05:10:28;97549.94;;;11.25;85.21
25130;BME280;13308;50.860;13.664;2023-05-31T05:12:53;97555.69;;;11.48;84.58
25130;BME280;13308;50.860;13.664;2023-05-31T05:15:19;97559.53;;;11.64;84.15
25130;BME280;13308;50.860;13.664;2023-05-31T05:17:45;97556.91;;;11.94;83.21
25130;BME280;13308;50.860;13.664;2023-05-31T05:20:12;97565.38;;;12.17;82.18
25130;BME280;13308;50.860;13.664;2023-05-31T05:22:38;97573.75;;;12.47;79.38
25130;BME280;13308;50.860;13.664;2023-05-31T05:25:04;97568.97;;;12.51;79.79
25130;BME280;13308;50.860;13.664;2023-05-31T05:27:31;97561.44;;;12.85;78.62
25130;BME280;13308;50.860;13.664;2023-05-31T05:29:56;97568.09;;;13.21;76.31
25130;BME280;13308;50.860;13.664;2023-05-31T05:32:22;97571.13;;;13.30;75.88
25130;BME280;13308;50.860;13.664;2023-05-31T05:34:47;97567.13;;;13.31;75.04
25130;BME280;13308;50.860;13.664;2023-05-31T05:37:13;97574.47;;;13.18;75.84
25130;BME280;13308;50.860;13.664;2023-05-31T05:39:38;97579.66;;;13.43;74.38
25130;BME280;13308;50.860;13.664;2023-05-31T05:42:03;97576.72;;;13.53;74.90
25130;BME280;13308;50.860;13.664;2023-05-31T05:44:29;97580.13;;;13.64;74.22
25130;BME280;13308;50.860;13.664;2023-05-31T05:46:54;97564.03;;;13.79;74.44
25130;BME280;13308;50.860;13.664;2023-05-31T05:49:22;97571.56;;;13.78;74.67
25130;BME280;13308;50.860;13.664;2023-05-31T05:51:47;97573.00;;;13.86;73.77
25130;BME280;13308;50.860;13.664;2023-05-31T05:54:13;97568.69;;;14.31;71.46
25130;BME280;13308;50.860;13.664;2023-05-31T05:56:39;97563.06;;;14.12;73.42
25130;BME280;13308;50.860;13.664;2023-05-31T05:59:06;97570.25;;;14.32;73.36
25130;BME280;13308;50.860;13.664;2023-05-31T06:01:51;97572.16;;;14.58;70.95
25130;BME280;13308;50.860;13.664;2023-05-31T06:04:18;97588.03;;;14.97;67.56
25130;BME280;13308;50.860;13.664;2023-05-31T06:06:44;97575.94;;;15.42;68.52
25130;BME280;13308;50.860;13.664;2023-05-31T06:09:09;97579.97;;;15.57;69.37
25130;BME280;13308;50.860;13.664;2023-05-31T06:11:35;97584.88;;;15.85;68.10
25130;BME280;13308;50.860;13.664;2023-05-31T06:14:00;97587.81;;;16.10;69.96
25130;BME280;13308;50.860;13.664;2023-05-31T06:16:31;97590.25;;;16.40;65.75
25130;BME280;13308;50.860;13.664;2023-05-31T06:18:57;97587.94;;;16.67;58.50
25130;BME280;13308;50.860;13.664;2023-05-31T06:21:23;97592.25;;;16.97;59.37
25130;BME280;13308;50.860;13.664;2023-05-31T06:23:48;97587.28;;;17.17;61.41
25130;BME280;13308;50.860;13.664;2023-05-31T06:26:13;97594.41;;;17.46;58.60
25130;BME280;13308;50.860;13.664;2023-05-31T06:28:39;97591.31;;;17.69;56.59
25130;BME280;13308;50.860;13.664;2023-05-31T06:31:13;97595.50;;;18.36;56.64
25130;BME280;13308;50.860;13.664;2023-05-31T06:33:38;97594.16;;;18.96;53.06
25130;BME280;13308;50.860;13.664;2023-05-31T06:36:04;97601.44;;;19.58;52.66
25130;BME280;13308;50.860;13.664;2023-05-31T06:38:29;97604.22;;;20.28;53.06
25130;BME280;13308;50.860;13.664;2023-05-31T06:40:55;97605.84;;;20.74;49.94
25130;BME280;13308;50.860;13.664;2023-05-31T06:43:21;97603.69;;;21.23;49.57
25130;BME280;13308;50.860;13.664;2023-05-31T06:46:05;97617.16;;;22.20;49.91
25130;BME280;13308;50.860;13.664;2023-05-31T06:48:51;97616.56;;;23.10;46.05
25130;BME280;13308;50.860;13.664;2023-05-31T06:51:35;97616.66;;;23.39;43.21
25130;BME280;13308;50.860;13.664;2023-05-31T06:54:36;97619.94;;;24.10;41.00
25130;BME280;13308;50.860;13.664;2023-05-31T06:57:03;97615.50;;;24.03;40.24
25130;BME280;13308;50.860;13.664;2023-05-31T06:59:28;97616.22;;;24.67;41.85
25130;BME280;13308;50.860;13.664;2023-05-31T07:01:54;97621.66;;;24.91;38.99
25130;BME280;13308;50.860;13.664;2023-05-31T07:04:20;97618.66;;;25.40;40.72
25130;BME280;13308;50.860;13.664;2023-05-31T07:06:46;97625.38;;;25.22;38.81
25130;BME280;13308;50.860;13.664;2023-05-31T07:09:12;97612.88;;;25.29;38.98
25130;BME280;13308;50.860;13.664;2023-05-31T07:11:49;97633.81;;;25.62;37.96
25130;BME280;13308;50.860;13.664;2023-05-31T07:14:15;97627.22;;;26.27;38.06
25130;BME280;13308;50.860;13.664;2023-05-31T07:16:40;97631.31;;;26.63;36.12
25130;BME280;13308;50.860;13.664;2023-05-31T07:19:06;97619.91;;;26.52;37.34
25130;BME280;13308;50.860;13.664;2023-05-31T07:21:31;97617.00;;;26.83;37.41
25130;BME280;13308;50.860;13.664;2023-05-31T07:23:57;97624.66;;;27.19;36.44
25130;BME280;13308;50.860;13.664;2023-05-31T07:26:23;97623.66;;;26.74;35.14
25130;BME280;13308;50.860;13.664;2023-05-31T07:28:48;97615.25;;;27.66;35.18
25130;BME280;13308;50.860;13.664;2023-05-31T07:31:14;97623.06;;;28.04;35.87
25130;BME280;13308;50.860;13.664;2023-05-31T07:33:41;97627.19;;;27.81;35.55
25130;BME280;13308;50.860;13.664;2023-05-31T07:36:06;97621.50;;;27.97;35.25
25130;BME280;13308;50.860;13.664;2023-05-31T07:38:32;97625.13;;;28.47;34.26
25130;BME280;13308;50.860;13.664;2023-05-31T07:40:57;97619.94;;;28.62;34.60
25130;BME280;13308;50.860;13.664;2023-05-31T07:43:25;97605.53;;;28.22;33.44
25130;BME280;13308;50.860;13.664;2023-05-31T07:45:52;97616.09;;;27.94;33.27
25130;BME280;13308;50.860;13.664;2023-05-31T07:48:19;97610.91;;;28.47;33.68
25130;BME280;13308;50.860;13.664;2023-05-31T07:50:46;97610.09;;;28.74;33.85
25130;BME280;13308;50.860;13.664;2023-05-31T07:53:11;97604.50;;;27.81;34.12
25130;BME280;13308;50.860;13.664;2023-05-31T07:55:37;97592.09;;;28.22;33.46
25130;BME280;13308;50.860;13.664;2023-05-31T07:58:02;97606.97;;;28.83;32.97
25130;BME280;13308;50.860;13.664;2023-05-31T08:00:28;97599.72;;;28.99;33.26
25130;BME280;13308;50.860;13.664;2023-05-31T08:02:53;97596.34;;;28.95;32.84
25130;BME280;13308;50.860;13.664;2023-05-31T08:05:19;97598.69;;;29.48;32.42
25130;BME280;13308;50.860;13.664;2023-05-31T08:07:44;97592.19;;;29.58;31.96
25130;BME280;13308;50.860;13.664;2023-05-31T08:10:10;97589.09;;;29.56;32.94
25130;BME280;13308;50.860;13.664;2023-05-31T08:12:36;97593.81;;;29.43;32.54
25130;BME280;13308;50.860;13.664;2023-05-31T08:15:02;97593.34;;;28.60;33.15
25130;BME280;13308;50.860;13.664;2023-05-31T08:17:27;97596.41;;;28.73;34.04
25130;BME280;13308;50.860;13.664;2023-05-31T08:19:52;97586.66;;;28.63;32.63
25130;BME280;13308;50.860;13.664;2023-05-31T08:22:18;97594.88;;;28.61;32.40
25130;BME280;13308;50.860;13.664;2023-05-31T08:24:43;97590.25;;;28.63;32.61
25130;BME280;13308;50.860;13.664;2023-05-31T08:27:08;97586.66;;;28.35;33.83
25130;BME280;13308;50.860;13.664;2023-05-31T08:29:34;97589.75;;;28.32;34.02
25130;BME280;13308;50.860;13.664;2023-05-31T08:32:00;97592.84;;;27.57;34.70
25130;BME280;13308;50.860;13.664;2023-05-31T08:34:25;97582.84;;;27.83;35.25
25130;BME280;13308;50.860;13.664;2023-05-31T08:36:51;97587.22;;;28.06;33.93
25130;BME280;13308;50.860;13.664;2023-05-31T08:39:16;97583.59;;;27.95;35.09
25130;BME280;13308;50.860;13.664;2023-05-31T08:41:50;97585.13;;;28.18;34.29
25130;BME280;13308;50.860;13.664;2023-05-31T08:44:17;97573.50;;;27.55;35.35
25130;BME280;13308;50.860;13.664;2023-05-31T08:46:44;97582.06;;;27.83;34.50
25130;BME280;13308;50.860;13.664;2023-05-31T08:49:11;97565.75;;;27.45;34.69
25130;BME280;13308;50.860;13.664;2023-05-31T08:51:38;97571.16;;;27.54;36.03
25130;BME280;13308;50.860;13.664;2023-05-31T08:54:06;97570.16;;;27.68;34.19
25130;BME280;13308;50.860;13.664;2023-05-31T08:56:32;97559.78;;;27.21;35.33
25130;BME280;13308;50.860;13.664;2023-05-31T08:58:58;97572.72;;;27.66;35.22
25130;BME280;13308;50.860;13.664;2023-05-31T09:01:24;97567.31;;;27.73;34.69
25130;BME280;13308;50.860;13.664;2023-05-31T09:03:53;97562.75;;;26.90;35.73
25130;BME280;13308;50.860;13.664;2023-05-31T09:06:18;97567.16;;;27.02;35.97
25130;BME280;13308;50.860;13.664;2023-05-31T09:08:44;97568.06;;;26.71;36.39
25130;BME280;13308;50.860;13.664;2023-05-31T09:11:09;97572.34;;;27.14;36.00
25130;BME280;13308;50.860;13.664;2023-05-31T09:13:35;97564.09;;;27.05;36.06
25130;BME280;13308;50.860;13.664;2023-05-31T09:16:01;97565.25;;;26.77;34.72
25130;BME280;13308;50.860;13.664;2023-05-31T09:18:26;97563.78;;;26.98;34.99
25130;BME280;13308;50.860;13.664;2023-05-31T09:20:57;97569.50;;;27.09;33.96
25130;BME280;13308;50.860;13.664;2023-05-31T09:23:23;97558.88;;;26.93;34.04
25130;BME280;13308;50.860;13.664;2023-05-31T09:25:52;97548.38;;;27.15;35.93
25130;BME280;13308;50.860;13.664;2023-05-31T09:28:19;97549.59;;;26.87;35.66
25130;BME280;13308;50.860;13.664;2023-05-31T09:30:45;97555.81;;;26.96;33.94
25130;BME280;13308;50.860;13.664;2023-05-31T09:33:12;97544.97;;;26.95;33.46
25130;BME280;13308;50.860;13.664;2023-05-31T09:35:54;97540.75;;;26.21;35.25
25130;BME280;13308;50.860;13.664;2023-05-31T09:38:30;97540.34;;;26.39;37.85
25130;BME280;13308;50.860;13.664;2023-05-31T09:40:56;97541.28;;;26.72;37.93
25130;BME280;13308;50.860;13.664;2023-05-31T09:43:21;97535.63;;;26.72;37.03
25130;BME280;13308;50.860;13.664;2023-05-31T09:45:47;97540.00;;;26.68;35.54
25130;BME280;13308;50.860;13.664;2023-05-31T09:48:13;97546.22;;;26.77;36.52
25130;BME280;13308;50.860;13.664;2023-05-31T09:50:38;97538.75;;;26.85;36.60
25130;BME280;13308;50.860;13.664;2023-05-31T09:53:04;97538.72;;;27.60;34.62
25130;BME280;13308;50.860;13.664;2023-05-31T09:55:39;97532.19;;;27.16;36.21
25130;BME280;13308;50.860;13.664;2023-05-31T09:58:10;97534.88;;;26.83;36.37
25130;BME280;13308;50.860;13.664;2023-05-31T10:00:43;97527.22;;;27.00;35.02
25130;BME280;13308;50.860;13.664;2023-05-31T10:03:09;97537.06;;;27.10;38.62
25130;BME280;13308;50.860;13.664;2023-05-31T10:05:35;97536.06;;;27.24;37.03
25130;BME280;13308;50.860;13.664;2023-05-31T10:08:00;97523.94;;;27.12;35.88
25130;BME280;13308;50.860;13.664;2023-05-31T10:10:26;97527.34;;;26.58;37.37
25130;BME280;13308;50.860;13.664;2023-05-31T10:12:57;97520.13;;;26.62;35.56
25130;BME280;13308;50.860;13.664;2023-05-31T10:15:25;97518.47;;;26.98;36.51
25130;BME280;13308;50.860;13.664;2023-05-31T10:17:54;97521.06;;;27.07;36.28
25130;BME280;13308;50.860;13.664;2023-05-31T10:20:24;97518.47;;;27.03;37.82
25130;BME280;13308;50.860;13.664;2023-05-31T10:22:52;97524.47;;;27.27;38.03
25130;BME280;13308;50.860;13.664;2023-05-31T10:25:28;97521.94;;;27.46;38.07
25130;BME280;13308;50.860;13.664;2023-05-31T10:27:58;97521.94;;;27.57;35.81
25130;BME280;13308;50.860;13.664;2023-05-31T10:30:28;97515.75;;;27.42;37.04
25130;BME280;13308;50.860;13.664;2023-05-31T10:33:16;97523.47;;;27.30;38.92
25130;BME280;13308;50.860;13.664;2023-05-31T10:35:44;97515.25;;;27.54;38.21
25130;BME280;13308;50.860;13.664;2023-05-31T10:38:09;97509.06;;;27.45;37.18
25130;BME280;13308;50.860;13.664;2023-05-31T10:40:47;97507.25;;;27.64;37.97
25130;BME280;13308;50.860;13.664;2023-05-31T10:43:20;97510.88;;;27.59;35.04
25130;BME280;13308;50.860;13.664;2023-05-31T10:45:54;97504.94;;;28.06;37.45
25130;BME280;13308;50.860;13.664;2023-05-31T10:48:29;97494.38;;;28.01;35.93
25130;BME280;13308;50.860;13.664;2023-05-31T10:50:59;97495.41;;;27.60;35.32
25130;BME280;13308;50.860;13.664;2023-05-31T10:53:38;97489.97;;;27.67;37.42
25130;BME280;13308;50.860;13.664;2023-05-31T10:56:05;97498.47;;;27.73;38.59
25130;BME280;13308;50.860;13.664;2023-05-31T10:58:37;97499.56;;;27.81;36.33
25130;BME280;13308;50.860;13.664;2023-05-31T11:01:14;97492.28;;;27.25;36.25
25130;BME280;13308;50.860;13.664;2023-05-31T11:03:49;97492.03;;;27.67;36.06
25130;BME280;13308;50.860;13.664;2023-05-31T11:06:16;97483.03;;;27.41;35.34
25130;BME280;13308;50.860;13.664;2023-05-31T11:09:11;97480.69;;;28.00;36.92
25130;BME280;13308;50.860;13.664;2023-05-31T11:14:09;97478.53;;;28.44;35.67
25130;BME280;13308;50.860;13.664;2023-05-31T11:19:20;97471.03;;;28.47;37.47
25130;BME280;13308;50.860;13.664;2023-05-31T11:21:53;97474.16;;;28.38;36.31
25130;BME280;13308;50.860;13.664;2023-05-31T11:24:27;97472.69;;;28.83;36.33
25130;BME280;13308;50.860;13.664;2023-05-31T11:26:54;97474.59;;;29.10;37.61
25130;BME280;13308;50.860;13.664;2023-05-31T11:29:20;97474.06;;;29.17;34.72
25130;BME280;13308;50.860;13.664;2023-05-31T11:31:55;97471.53;;;29.43;36.14
25130;BME280;13308;50.860;13.664;2023-05-31T11:34:23;97467.44;;;29.38;36.97
25130;BME280;13308;50.860;13.664;2023-05-31T11:36:57;97461.63;;;29.55;37.00
25130;BME280;13308;50.860;13.664;2023-05-31T11:39:23;97464.53;;;29.79;34.82
25130;BME280;13308;50.860;13.664;2023-05-31T11:41:49;97464.91;;;29.94;32.97
25130;BME280;13308;50.860;13.664;2023-05-31T11:44:20;97473.41;;;29.70;35.03
25130;BME280;13308;50.860;13.664;2023-05-31T11:46:46;97459.03;;;29.57;34.88
25130;BME280;13308;50.860;13.664;2023-05-31T11:49:14;97464.97;;;29.59;33.42
25130;BME280;13308;50.860;13.664;2023-05-31T11:51:43;97471.97;;;29.52;35.14
25130;BME280;13308;50.860;13.664;2023-05-31T11:54:09;97458.41;;;29.69;33.05
25130;BME280;13308;50.860;13.664;2023-05-31T11:56:37;97459.25;;;29.88;31.43
25130;BME280;13308;50.860;13.664;2023-05-31T11:59:02;97444.63;;;29.44;34.40
25130;BME280;13308;50.860;13.664;2023-05-31T12:01:35;97456.91;;;29.92;33.42
25130;BME280;13308;50.860;13.664;2023-05-31T12:04:00;97457.91;;;29.95;31.59
25130;BME280;13308;50.860;13.664;2023-05-31T12:06:26;97459.56;;;30.09;34.52
25130;BME280;13308;50.860;13.664;2023-05-31T12:08:52;97453.97;;;30.27;31.92
25130;BME280;13308;50.860;13.664;2023-05-31T12:11:18;97457.13;;;30.24;34.19
25130;BME280;13308;50.860;13.664;2023-05-31T12:13:43;97459.47;;;30.44;34.92
25130;BME280;13308;50.860;13.664;2023-05-31T12:16:09;97444.88;;;30.29;32.28
25130;BME280;13308;50.860;13.664;2023-05-31T12:18:34;97449.59;;;30.26;33.80
25130;BME280;13308;50.860;13.664;2023-05-31T12:21:08;97426.13;;;29.32;30.84
25130;BME280;13308;50.860;13.664;2023-05-31T12:23:54;97436.47;;;29.94;32.26
25130;BME280;13308;50.860;13.664;2023-05-31T12:26:20;97431.94;;;30.28;32.40
25130;BME280;13308;50.860;13.664;2023-05-31T12:28:46;97432.50;;;30.69;33.43
25130;BME280;13308;50.860;13.664;2023-05-31T12:31:19;97428.34;;;30.88;34.41
25130;BME280;13308;50.860;13.664;2023-05-31T12:33:51;97424.00;;;30.82;31.40
25130;BME280;13308;50.860;13.664;2023-05-31T12:36:17;97420.78;;;30.91;31.72
25130;BME280;13308;50.860;13.664;2023-05-31T12:38:42;97433.03;;;31.23;32.73
25130;BME280;13308;50.860;13.664;2023-05-31T12:41:07;97436.88;;;32.01;30.49
25130;BME280;13308;50.860;13.664;2023-05-31T12:43:32;97426.66;;;31.93;31.30
25130;BME280;13308;50.860;13.664;2023-05-31T12:45:58;97434.38;;;32.37;29.40
25130;BME280;13308;50.860;13.664;2023-05-31T12:48:23;97437.22;;;32.24;31.73
25130;BME280;13308;50.860;13.664;2023-05-31T12:50:49;97419.38;;;31.34;31.29
25130;BME280;13308;50.860;13.664;2023-05-31T12:53:15;97415.59;;;31.58;32.16
25130;BME280;13308;50.860;13.664;2023-05-31T12:55:41;97426.78;;;32.13;32.63
25130;BME280;13308;50.860;13.664;2023-05-31T12:58:06;97420.91;;;32.24;32.02
25130;BME280;13308;50.860;13.664;2023-05-31T13:00:32;97423.94;;;32.13;30.85
25130;BME280;13308;50.860;13.664;2023-05-31T13:02:57;97424.75;;;32.27;30.92
25130;BME280;13308;50.860;13.664;2023-05-31T13:05:23;97425.28;;;32.38;31.36
25130;BME280;13308;50.860;13.664;2023-05-31T13:07:51;97425.91;;;32.70;30.94
25130;BME280;13308;50.860;13.664;2023-05-31T13:10:16;97428.66;;;32.76;31.17
25130;BME280;13308;50.860;13.664;2023-05-31T13:12:41;97415.66;;;32.88;30.82
25130;BME280;13308;50.860;13.664;2023-05-31T13:15:07;97414.56;;;32.65;30.26
25130;BME280;13308;50.860;13.664;2023-05-31T13:17:33;97408.66;;;33.84;30.02
25130;BME280;13308;50.860;13.664;2023-05-31T13:19:58;97409.88;;;33.01;28.88
25130;BME280;13308;50.860;13.664;2023-05-31T13:22:24;97404.38;;;33.03;29.11
25130;BME280;13308;50.860;13.664;2023-05-31T13:24:49;97408.84;;;33.65;28.96
25130;BME280;13308;50.860;13.664;2023-05-31T13:27:15;97412.97;;;34.54;27.92
25130;BME280;13308;50.860;13.664;2023-05-31T13:29:40;97415.06;;;34.96;27.57
25130;BME280;13308;50.860;13.664;2023-05-31T13:32:05;97407.09;;;34.31;27.18
25130;BME280;13308;50.860;13.664;2023-05-31T13:34:31;97387.59;;;33.33;26.71
25130;BME280;13308;50.860;13.664;2023-05-31T13:36:56;97399.66;;;34.08;29.03
25130;BME280;13308;50.860;13.664;2023-05-31T13:39:22;97397.19;;;34.32;28.72
25130;BME280;13308;50.860;13.664;2023-05-31T13:41:48;97412.19;;;34.89;27.95
25130;BME280;13308;50.860;13.664;2023-05-31T13:44:13;97407.28;;;34.68;26.82
25130;BME280;13308;50.860;13.664;2023-05-31T13:46:41;97410.66;;;35.60;27.05
25130;BME280;13308;50.860;13.664;2023-05-31T13:49:06;97399.22;;;34.60;28.00
25130;BME280;13308;50.860;13.664;2023-05-31T13:51:31;97388.44;;;35.68;27.00
25130;BME280;13308;50.860;13.664;2023-05-31T13:53:57;97403.03;;;34.97;27.55
25130;BME280;13308;50.860;13.664;2023-05-31T13:56:22;97393.81;;;34.92;27.29
25130;BME280;13308;50.860;13.664;2023-05-31T13:58:48;97387.47;;;35.43;25.96
25130;BME280;13308;50.860;13.664;2023-05-31T14:01:13;97393.00;;;35.27;27.18
25130;BME280;13308;50.860;13.664;2023-05-31T14:03:39;97385.66;;;35.03;27.26
25130;BME280;13308;50.860;13.664;2023-05-31T14:06:05;97396.50;;;35.92;26.64
25130;BME280;13308;50.860;13.664;2023-05-31T14:08:31;97386.69;;;35.43;25.80
25130;BME280;13308;50.860;13.664;2023-05-31T14:10:57;97384.19;;;35.25;25.17
25130;BME280;13308;50.860;13.664;2023-05-31T14:13:22;97382.94;;;34.97;26.40
25130;BME280;13308;50.860;13.664;2023-05-31T14:15:48;97367.78;;;34.82;27.15
25130;BME280;13308;50.860;13.664;2023-05-31T14:18:13;97370.22;;;34.71;28.16
25130;BME280;13308;50.860;13.664;2023-05-31T14:20:39;97379.75;;;35.16;25.65
25130;BME280;13308;50.860;13.664;2023-05-31T14:23:04;97369.63;;;35.15;26.78
25130;BME280;13308;50.860;13.664;2023-05-31T14:25:30;97371.25;;;34.45;27.50
25130;BME280;13308;50.860;13.664;2023-05-31T14:27:56;97370.00;;;34.26;27.61
25130;BME280;13308;50.860;13.664;2023-05-31T14:30:21;97360.47;;;33.75;26.00
25130;BME280;13308;50.860;13.664;2023-05-31T14:32:46;97351.34;;;34.40;25.21
25130;BME280;13308;50.860;13.664;2023-05-31T14:35:12;97355.41;;;34.52;25.63
25130;BME280;13308;50.860;13.664;2023-05-31T14:37:38;97359.25;;;34.19;26.05
25130;BME280;13308;50.860;13.664;2023-05-31T14:40:04;97357.94;;;34.63;26.50
25130;BME280;13308;50.860;13.664;2023-05-31T14:42:30;97356.56;;;34.21;26.55
25130;BME280;13308;50.860;13.664;2023-05-31T14:44:55;97342.00;;;33.83;27.23
25130;BME280;13308;50.860;13.664;2023-05-31T14:47:21;97341.06;;;33.81;27.51
25130;BME280;13308;50.860;13.664;2023-05-31T14:49:46;97351.56;;;34.14;27.75
25130;BME280;13308;50.860;13.664;2023-05-31T14:52:11;97335.91;;;33.59;27.92
25130;BME280;13308;50.860;13.664;2023-05-31T14:54:37;97341.75;;;33.53;27.54
25130;BME280;13308;50.860;13.664;2023-05-31T14:57:03;97336.94;;;32.87;27.23
25130;BME280;13308;50.860;13.664;2023-05-31T14:59:29;97338.00;;;33.38;27.92
25130;BME280;13308;50.860;13.664;2023-05-31T15:01:55;97326.69;;;33.12;26.79
25130;BME280;13308;50.860;13.664;2023-05-31T15:04:23;97338.84;;;33.46;27.76
25130;BME280;13308;50.860;13.664;2023-05-31T15:06:49;97326.06;;;32.72;26.87
25130;BME280;13308;50.860;13.664;2023-05-31T15:09:14;97326.50;;;33.10;26.49
25130;BME280;13308;50.860;13.664;2023-05-31T15:11:39;97324.88;;;33.63;26.00
25130;BME280;13308;50.860;13.664;2023-05-31T15:14:05;97321.16;;;32.93;27.67
25130;BME280;13308;50.860;13.664;2023-05-31T15:16:31;97312.53;;;32.73;26.98
25130;BME280;13308;50.860;13.664;2023-05-31T15:18:56;97321.53;;;33.31;27.37
25130;BME280;13308;50.860;13.664;2023-05-31T15:21:22;97317.06;;;32.68;26.93
25130;BME280;13308;50.860;13.664;2023-05-31T15:23:47;97309.59;;;31.67;26.39
25130;BME280;13308;50.860;13.664;2023-05-31T15:26:13;97304.78;;;31.75;27.79
25130;BME280;13308;50.860;13.664;2023-05-31T15:28:38;97307.41;;;31.99;28.68
25130;BME280;13308;50.860;13.664;2023-05-31T15:31:04;97305.19;;;31.53;28.14
25130;BME280;13308;50.860;13.664;2023-05-31T15:33:38;97302.41;;;30.90;29.84
25130;BME280;13308;50.860;13.664;2023-05-31T15:36:04;97313.19;;;31.10;29.27
25130;BME280;13308;50.860;13.664;2023-05-31T15:38:30;97300.25;;;31.09;28.81
25130;BME280;13308;50.860;13.664;2023-05-31T15:40:55;97304.28;;;31.00;29.27
25130;BME280;13308;50.860;13.664;2023-05-31T15:43:26;97303.00;;;31.14;28.49
25130;BME280;13308;50.860;13.664;2023-05-31T15:45:52;97298.16;;;30.04;29.76
25130;BME280;13308;50.860;13.664;2023-05-31T15:48:20;97293.03;;;29.78;30.12
25130;BME280;13308;50.860;13.664;2023-05-31T15:50:46;97295.72;;;29.95;31.18
25130;BME280;13308;50.860;13.664;2023-05-31T15:53:12;97286.94;;;29.45;31.28
25130;BME280;13308;50.860;13.664;2023-05-31T15:55:37;97271.56;;;28.76;30.90
25130;BME280;13308;50.860;13.664;2023-05-31T15:58:03;97276.38;;;28.57;32.40
25130;BME280;13308;50.860;13.664;2023-05-31T16:00:28;97268.03;;;27.78;32.81
25130;BME280;13308;50.860;13.664;2023-05-31T16:02:54;97264.03;;;28.03;33.35
25130;BME280;13308;50.860;13.664;2023-05-31T16:05:20;97257.69;;;27.86;32.76
25130;BME280;13308;50.860;13.664;2023-05-31T16:07:45;97262.72;;;27.47;33.40
25130;BME280;13308;50.860;13.664;2023-05-31T16:10:11;97257.41;;;27.89;33.21
25130;BME280;13308;50.860;13.664;2023-05-31T16:12:38;97243.94;;;27.33;35.49
25130;BME280;13308;50.860;13.664;2023-05-31T16:15:04;97252.91;;;27.48;34.00
25130;BME280;13308;50.860;13.664;2023-05-31T16:17:30;97241.72;;;26.87;34.75
25130;BME280;13308;50.860;13.664;2023-05-31T16:19:55;97243.22;;;26.44;35.81
25130;BME280;13308;50.860;13.664;2023-05-31T16:22:21;97249.41;;;26.43;35.03
25130;BME280;13308;50.860;13.664;2023-05-31T16:24:46;97238.31;;;26.34;33.55
25130;BME280;13308;50.860;13.664;2023-05-31T16:27:12;97239.59;;;26.22;34.39
25130;BME280;13308;50.860;13.664;2023-05-31T16:29:37;97237.56;;;26.33;35.50
25130;BME280;13308;50.860;13.664;2023-05-31T16:32:03;97233.19;;;26.71;34.88
25130;BME280;13308;50.860;13.664;2023-05-31T16:34:28;97231.66;;;26.70;35.07
25130;BME280;13308;50.860;13.664;2023-05-31T16:36:53;97232.16;;;26.79;35.24
25130;BME280;13308;50.860;13.664;2023-05-31T16:39:19;97225.75;;;26.79;35.49
25130;BME280;13308;50.860;13.664;2023-05-31T16:41:44;97221.88;;;26.87;35.67
25130;BME280;13308;50.860;13.664;2023-05-31T16:44:10;97218.78;;;26.74;34.52
25130;BME280;13308;50.860;13.664;2023-05-31T16:46:35;97216.75;;;26.64;35.18
25130;BME280;13308;50.860;13.664;2023-05-31T16:49:03;97221.34;;;26.45;35.09
25130;BME280;13308;50.860;13.664;2023-05-31T16:51:28;97217.53;;;26.59;35.58
25130;BME280;13308;50.860;13.664;2023-05-31T16:53:53;97216.72;;;26.80;35.15
25130;BME280;13308;50.860;13.664;2023-05-31T16:56:19;97214.69;;;26.59;34.80
25130;BME280;13308;50.860;13.664;2023-05-31T16:58:44;97213.63;;;26.95;35.60
25130;BME280;13308;50.860;13.664;2023-05-31T17:01:10;97212.09;;;26.72;35.08
25130;BME280;13308;50.860;13.664;2023-05-31T17:03:35;97205.66;;;26.88;34.48
25130;BME280;13308;50.860;13.664;2023-05-31T17:06:01;97202.06;;;26.38;35.99
25130;BME280;13308;50.860;13.664;2023-05-31T17:08:26;97197.88;;;25.89;36.48
25130;BME280;13308;50.860;13.664;2023-05-31T17:10:52;97199.97;;;26.00;37.75
25130;BME280;13308;50.860;13.664;2023-05-31T17:13:17;97195.66;;;25.40;37.63
25130;BME280;13308;50.860;13.664;2023-05-31T17:15:44;97196.63;;;25.96;37.63
25130;BME280;13308;50.860;13.664;2023-05-31T17:18:10;97189.31;;;25.56;37.16
25130;BME280;13308;50.860;13.664;2023-05-31T17:20:36;97197.59;;;25.71;37.61
25130;BME280;13308;50.860;13.664;2023-05-31T17:23:01;97195.75;;;25.73;38.14
25130;BME280;13308;50.860;13.664;2023-05-31T17:25:27;97192.34;;;25.53;37.86
25130;BME280;13308;50.860;13.664;2023-05-31T17:27:52;97191.91;;;25.60;38.36
25130;BME280;13308;50.860;13.664;2023-05-31T17:30:17;97181.66;;;25.15;38.25
25130;BME280;13308;50.860;13.664;2023-05-31T17:32:43;97186.25;;;25.12;39.64
25130;BME280;13308;50.860;13.664;2023-05-31T17:35:10;97184.41;;;25.04;38.51
25130;BME280;13308;50.860;13.664;2023-05-31T17:37:36;97190.72;;;24.82;38.55
25130;BME280;13308;50.860;13.664;2023-05-31T17:40:01;97185.72;;;24.61;39.50
25130;BME280;13308;50.860;13.664;2023-05-31T17:42:27;97183.31;;;24.54;40.81
25130;BME280;13308;50.860;13.664;2023-05-31T17:44:52;97187.22;;;24.25;41.13
25130;BME280;13308;50.860;13.664;2023-05-31T17:47:18;97182.97;;;24.41;39.33
25130;BME280;13308;50.860;13.664;2023-05-31T17:49:44;97170.22;;;24.20;41.23
25130;BME280;13308;50.860;13.664;2023-05-31T17:52:09;97172.19;;;23.83;42.66
25130;BME280;13308;50.860;13.664;2023-05-31T17:54:34;97175.63;;;23.92;38.92
25130;BME280;13308;50.860;13.664;2023-05-31T17:57:00;97175.97;;;23.80;38.99
25130;BME280;13308;50.860;13.664;2023-05-31T17:59:26;97167.19;;;23.47;39.11
25130;BME280;13308;50.860;13.664;2023-05-31T18:01:51;97162.84;;;23.26;41.47
25130;BME280;13308;50.860;13.664;2023-05-31T18:04:17;97167.53;;;23.14;42.65